createdAt,value
2023-04-16T00:01:17.526Z,9.20
2023-04-16T00:04:21.115Z,9.24
2023-04-16T00:07:23.757Z,9.14
2023-04-16T00:10:26.356Z,9.09
2023-04-16T00:13:29.830Z,9.09
2023-04-16T00:16:33.383Z,9.13
2023-04-16T00:19:36.386Z,9.03
2023-04-16T00:22:39.520Z,8.98
2023-04-16T00:25:42.928Z,8.89
2023-04-16T00:28:45.652Z,8.90
2023-04-16T00:31:49.536Z,8.85
2023-04-16T00:34:52.683Z,8.83
2023-04-16T00:37:55.794Z,8.82
2023-04-16T00:40:59.329Z,8.73
2023-04-16T00:44:02.361Z,8.76
2023-04-16T00:47:07.596Z,8.75
2023-04-16T00:50:11.553Z,8.79
2023-04-16T00:53:16.224Z,8.70
2023-04-16T00:56:21.240Z,8.63
2023-04-16T00:59:24.508Z,8.60
2023-04-16T01:02:27.340Z,8.61
2023-04-16T01:05:30.366Z,8.53
2023-04-16T01:08:33.702Z,8.42
2023-04-16T01:11:37.218Z,8.49
2023-04-16T01:14:40.014Z,8.53
2023-04-16T01:17:46.190Z,8.54
2023-04-16T01:20:51.253Z,8.54
2023-04-16T01:23:55.202Z,8.49
2023-04-16T01:27:01.001Z,8.45
2023-04-16T01:30:05.149Z,8.41
2023-04-16T01:33:18.967Z,8.30
2023-04-16T01:36:21.684Z,8.30
2023-04-16T01:39:24.610Z,8.35
2023-04-16T01:42:29.271Z,8.28
2023-04-16T01:45:33.418Z,8.29
2023-04-16T01:48:36.323Z,8.28
2023-04-16T01:51:39.134Z,8.25
2023-04-16T01:54:42.739Z,8.35
2023-04-16T01:57:46.247Z,8.37
2023-04-16T02:00:49.779Z,8.28
2023-04-16T02:03:53.598Z,8.24
2023-04-16T02:06:56.230Z,8.19
2023-04-16T02:09:58.886Z,8.18
2023-04-16T02:13:01.599Z,8.06
2023-04-16T02:16:04.633Z,8.13
2023-04-16T02:19:26.924Z,8.21
2023-04-16T02:22:30.101Z,8.23
2023-04-16T02:25:33.131Z,8.28
2023-04-16T02:28:35.990Z,8.29
2023-04-16T02:31:39.103Z,8.35
2023-04-16T02:34:43.384Z,8.40
2023-04-16T02:37:47.004Z,8.17
2023-04-16T02:40:49.743Z,8.21
2023-04-16T02:43:52.998Z,8.12
2023-04-16T02:46:55.696Z,8.10
2023-04-16T02:49:58.387Z,8.05
2023-04-16T02:53:00.919Z,8.04
2023-04-16T02:56:03.599Z,7.89
2023-04-16T02:59:06.331Z,7.82
2023-04-16T03:02:09.020Z,7.73
2023-04-16T03:05:12.465Z,7.74
2023-04-16T03:08:15.483Z,7.56
2023-04-16T03:11:18.092Z,7.50
2023-04-16T03:14:20.921Z,7.45
2023-04-16T03:17:23.620Z,7.56
2023-04-16T03:20:27.399Z,7.53
2023-04-16T03:23:30.841Z,7.49
2023-04-16T03:26:33.659Z,7.44
2023-04-16T03:29:38.394Z,7.47
2023-04-16T03:32:43.772Z,7.49
2023-04-16T03:35:54.716Z,7.63
2023-04-16T03:38:57.492Z,7.73
2023-04-16T03:42:00.489Z,7.69
2023-04-16T03:45:04.131Z,7.69
2023-04-16T03:48:07.900Z,7.72
2023-04-16T03:51:11.052Z,7.81
2023-04-16T03:54:15.028Z,7.80
2023-04-16T03:57:21.761Z,7.70
2023-04-16T04:00:24.675Z,7.82
2023-04-16T04:03:37.538Z,7.85
2023-04-16T04:06:41.048Z,7.89
2023-04-16T04:09:43.970Z,7.91
2023-04-16T04:12:47.126Z,7.95
2023-04-16T04:15:50.778Z,7.93
2023-04-16T04:18:53.559Z,7.92
2023-04-16T04:21:57.556Z,7.95
2023-04-16T04:25:00.217Z,7.86
2023-04-16T04:28:05.487Z,7.91
2023-04-16T04:31:08.065Z,8.03
2023-04-16T04:34:11.396Z,8.16
2023-04-16T04:37:14.158Z,8.20
2023-04-16T04:40:17.420Z,8.39
2023-04-16T04:43:21.244Z,8.40
2023-04-16T04:46:23.976Z,8.53
2023-04-16T04:49:27.520Z,8.56
2023-04-16T04:52:30.345Z,8.58
2023-04-16T04:55:33.144Z,8.56
2023-04-16T04:58:36.075Z,8.52
2023-04-16T05:01:39.269Z,8.49
2023-04-16T05:04:42.874Z,8.42
2023-04-16T05:07:46.438Z,8.56
2023-04-16T05:10:49.267Z,8.52
2023-04-16T05:13:52.062Z,8.60
2023-04-16T05:16:54.740Z,8.42
2023-04-16T05:19:57.390Z,8.60
2023-04-16T05:22:59.991Z,8.67
2023-04-16T05:26:03.520Z,8.69
2023-04-16T05:29:06.236Z,8.77
2023-04-16T05:32:09.174Z,8.76
2023-04-16T05:35:11.820Z,8.82
2023-04-16T05:38:14.510Z,8.78
2023-04-16T05:41:17.038Z,8.85
2023-04-16T05:44:20.482Z,8.87
2023-04-16T05:47:23.048Z,9.04
2023-04-16T05:50:25.702Z,9.16
2023-04-16T05:53:28.257Z,9.37
2023-04-16T05:56:30.806Z,9.31
2023-04-16T05:59:34.547Z,9.43
2023-04-16T06:02:37.448Z,9.55
2023-04-16T06:05:40.507Z,9.51
2023-04-16T06:08:43.897Z,9.54
2023-04-16T06:11:46.759Z,9.63
2023-04-16T06:14:49.630Z,9.77
2023-04-16T06:17:52.295Z,9.81
2023-04-16T06:20:56.336Z,9.79
2023-04-16T06:23:58.940Z,9.86
2023-04-16T06:27:03.053Z,10.06
2023-04-16T06:30:12.346Z,9.81
2023-04-16T06:33:14.887Z,9.93
2023-04-16T06:36:17.469Z,10.02
2023-04-16T06:39:21.856Z,10.07
2023-04-16T06:42:24.499Z,10.10
2023-04-16T06:45:27.258Z,10.13
2023-04-16T06:48:30.114Z,9.80
2023-04-16T06:51:33.275Z,10.05
2023-04-16T06:54:36.337Z,9.92
2023-04-16T06:57:40.748Z,9.93
2023-04-16T07:00:43.416Z,10.19
2023-04-16T07:03:46.396Z,10.14
2023-04-16T07:06:50.078Z,10.29
2023-04-16T07:09:52.680Z,10.28
2023-04-16T07:12:55.529Z,10.49
2023-04-16T07:15:58.362Z,10.49
2023-04-16T07:19:01.093Z,10.53
2023-04-16T07:22:04.145Z,10.50
2023-04-16T07:25:07.524Z,10.48
2023-04-16T07:28:10.140Z,10.61
2023-04-16T07:31:12.871Z,10.57
2023-04-16T07:34:16.563Z,10.61
2023-04-16T07:37:19.228Z,10.81
2023-04-16T07:40:21.837Z,10.99
2023-04-16T07:43:24.801Z,10.90
2023-04-16T07:46:39.397Z,10.94
2023-04-16T07:49:50.088Z,11.24
2023-04-16T07:52:53.882Z,11.55
2023-04-16T07:55:56.449Z,11.81
2023-04-16T07:59:08.009Z,12.05
2023-04-16T08:02:22.027Z,12.15
2023-04-16T08:05:25.123Z,12.13
2023-04-16T08:08:27.938Z,12.38
2023-04-16T08:11:30.773Z,11.81
2023-04-16T08:14:33.424Z,12.43
2023-04-16T08:17:37.780Z,12.60
2023-04-16T08:20:40.453Z,12.44
2023-04-16T08:23:43.207Z,13.05
2023-04-16T08:26:45.863Z,13.12
2023-04-16T08:29:48.771Z,13.37
2023-04-16T08:32:51.722Z,13.43
2023-04-16T08:35:54.558Z,13.53
2023-04-16T08:38:57.174Z,13.66
2023-04-16T08:42:03.858Z,13.67
2023-04-16T08:45:17.720Z,13.81
2023-04-16T08:48:22.087Z,13.85
2023-04-16T08:51:28.494Z,13.57
2023-04-16T08:54:39.047Z,14.21
2023-04-16T08:57:55.888Z,14.76
2023-04-16T09:00:58.602Z,14.90
2023-04-16T09:04:01.742Z,15.11
2023-04-16T09:07:06.368Z,15.08
2023-04-16T09:10:10.087Z,15.21
2023-04-16T09:13:15.890Z,15.34
2023-04-16T09:16:18.882Z,15.44
2023-04-16T09:19:21.704Z,15.30
2023-04-16T09:22:24.608Z,15.43
2023-04-16T09:25:27.742Z,15.46
2023-04-16T09:28:44.681Z,15.34
2023-04-16T09:32:06.261Z,15.55
2023-04-16T09:35:09.752Z,15.64
2023-04-16T09:38:12.338Z,15.91
2023-04-16T09:41:18.505Z,15.79
2023-04-16T09:44:21.129Z,15.62
2023-04-16T09:47:24.815Z,15.60
2023-04-16T09:50:27.510Z,15.56
2023-04-16T09:53:31.747Z,15.52
2023-04-16T09:56:39.403Z,15.44
2023-04-16T09:59:41.989Z,14.83
2023-04-16T10:02:44.717Z,14.69
2023-04-16T10:05:48.352Z,15.17
2023-04-16T10:08:52.913Z,15.40
2023-04-16T10:11:56.493Z,15.79
2023-04-16T10:14:59.107Z,15.70
2023-04-16T10:18:02.988Z,16.15
2023-04-16T10:21:07.013Z,16.44
2023-04-16T10:24:09.885Z,16.59
2023-04-16T10:27:13.489Z,16.88
2023-04-16T10:30:17.060Z,17.07
2023-04-16T10:33:27.916Z,17.34
2023-04-16T10:36:31.118Z,17.39
2023-04-16T10:39:37.601Z,16.89
2023-04-16T10:42:41.842Z,17.25
2023-04-16T10:45:44.396Z,17.31
2023-04-16T10:48:50.255Z,17.30
2023-04-16T10:51:54.938Z,16.87
2023-04-16T10:55:00.126Z,16.90
2023-04-16T10:58:23.237Z,17.35
2023-04-16T11:01:33.167Z,17.43
2023-04-16T11:04:38.131Z,17.63
2023-04-16T11:07:49.616Z,18.34
2023-04-16T11:10:54.361Z,18.17
2023-04-16T11:13:57.182Z,18.33
2023-04-16T11:17:03.646Z,18.65
2023-04-16T11:20:19.943Z,18.63
2023-04-16T11:23:23.370Z,18.62
2023-04-16T11:26:28.412Z,18.15
2023-04-16T11:29:31.164Z,17.91
2023-04-16T11:32:35.648Z,18.21
2023-04-16T11:35:39.908Z,18.11
2023-04-16T11:38:43.417Z,18.12
2023-04-16T11:41:50.548Z,17.67
2023-04-16T11:44:55.316Z,17.96
2023-04-16T11:47:58.037Z,18.57
2023-04-16T11:51:01.497Z,18.79
2023-04-16T11:54:04.228Z,18.26
2023-04-16T11:57:07.489Z,18.10
2023-04-16T12:00:14.224Z,18.18
2023-04-16T12:03:17.084Z,18.49
2023-04-16T12:06:20.010Z,18.88
2023-04-16T12:09:24.908Z,18.80
2023-04-16T12:12:31.425Z,19.27
2023-04-16T12:15:51.770Z,19.78
2023-04-16T12:19:05.704Z,20.33
2023-04-16T12:22:08.306Z,20.40
2023-04-16T12:25:12.434Z,20.45
2023-04-16T12:28:16.553Z,20.46
2023-04-16T12:31:37.129Z,20.71
2023-04-16T12:34:50.720Z,20.25
2023-04-16T12:37:53.255Z,20.13
2023-04-16T12:40:57.709Z,20.06
2023-04-16T12:44:04.787Z,20.43
2023-04-16T12:47:07.415Z,20.29
2023-04-16T12:50:10.723Z,19.75
2023-04-16T12:53:13.508Z,19.83
2023-04-16T12:56:16.820Z,20.15
2023-04-16T12:59:19.519Z,20.02
2023-04-16T13:02:22.719Z,20.63
2023-04-16T13:05:26.619Z,20.62
2023-04-16T13:08:29.814Z,20.82
2023-04-16T13:11:33.538Z,20.88
2023-04-16T13:14:37.349Z,20.33
2023-04-16T13:17:40.006Z,19.53
2023-04-16T13:20:42.708Z,19.37
2023-04-16T13:23:45.401Z,18.84
2023-04-16T13:26:49.570Z,18.40
2023-04-16T13:29:52.332Z,18.47
2023-04-16T13:32:56.533Z,18.74
2023-04-16T13:35:59.391Z,18.80
2023-04-16T13:39:04.763Z,18.55
2023-04-16T13:42:07.455Z,18.64
2023-04-16T13:45:10.068Z,18.33
2023-04-16T13:48:13.576Z,18.56
2023-04-16T13:51:16.521Z,18.82
2023-04-16T13:54:20.613Z,18.87
2023-04-16T13:57:23.306Z,18.62
2023-04-16T14:00:27.320Z,18.70
2023-04-16T14:03:30.941Z,18.77
2023-04-16T14:06:34.965Z,18.84
2023-04-16T14:09:37.540Z,18.99
2023-04-16T14:12:40.661Z,18.80
2023-04-16T14:15:43.531Z,18.72
2023-04-16T14:18:46.363Z,18.89
2023-04-16T14:21:49.447Z,18.70
2023-04-16T14:24:52.027Z,18.90
2023-04-16T14:27:55.161Z,19.11
2023-04-16T14:30:58.612Z,19.02
2023-04-16T14:34:02.008Z,18.63
2023-04-16T14:37:05.648Z,18.70
2023-04-16T14:40:09.905Z,18.73
2023-04-16T14:43:12.653Z,18.68
2023-04-16T14:46:17.809Z,18.77
2023-04-16T14:49:20.815Z,19.00
2023-04-16T14:52:25.465Z,19.14
2023-04-16T14:55:28.238Z,19.15
2023-04-16T14:58:31.467Z,19.07
2023-04-16T15:01:36.002Z,18.96
2023-04-16T15:04:38.816Z,19.09
2023-04-16T15:07:41.418Z,19.01
2023-04-16T15:10:45.787Z,19.08
2023-04-16T15:13:48.543Z,18.98
2023-04-16T15:16:51.408Z,18.97
2023-04-16T15:19:54.046Z,19.02
2023-04-16T15:22:56.889Z,19.77
2023-04-16T15:25:59.483Z,19.69
2023-04-16T15:29:02.758Z,19.34
2023-04-16T15:32:07.036Z,19.73
2023-04-16T15:35:11.389Z,20.01
2023-04-16T15:38:14.359Z,19.81
2023-04-16T15:41:17.698Z,19.62
2023-04-16T15:44:21.260Z,19.62
2023-04-16T15:47:26.682Z,19.31
2023-04-16T15:50:31.001Z,19.16
2023-04-16T15:53:34.449Z,19.04
2023-04-16T15:56:37.340Z,18.78
2023-04-16T15:59:40.829Z,18.92
2023-04-16T16:02:45.610Z,18.94
2023-04-16T16:05:48.774Z,18.57
2023-04-16T16:08:52.500Z,18.45
2023-04-16T16:11:59.766Z,18.13
2023-04-16T16:15:02.380Z,17.92
2023-04-16T16:18:06.120Z,17.90
2023-04-16T16:21:08.908Z,17.92
2023-04-16T16:24:12.238Z,17.88
2023-04-16T16:27:16.053Z,17.88
2023-04-16T16:30:18.796Z,17.79
2023-04-16T16:33:21.680Z,17.74
2023-04-16T16:36:24.249Z,17.72
2023-04-16T16:39:27.272Z,17.80
2023-04-16T16:42:29.941Z,17.69
2023-04-16T16:45:33.268Z,17.72
2023-04-16T16:48:37.228Z,17.68
2023-04-16T16:51:40.181Z,17.76
2023-04-16T16:54:43.885Z,17.61
2023-04-16T16:57:46.434Z,17.57
2023-04-16T17:00:49.048Z,17.49
2023-04-16T17:03:52.118Z,17.49
2023-04-16T17:06:54.795Z,17.47
2023-04-16T17:10:01.371Z,17.40
2023-04-16T17:13:06.089Z,17.38
2023-04-16T17:16:08.886Z,17.30
2023-04-16T17:19:12.365Z,17.23
2023-04-16T17:22:15.190Z,17.05
2023-04-16T17:25:18.910Z,16.87
2023-04-16T17:28:21.513Z,16.87
2023-04-16T17:31:26.899Z,16.74
2023-04-16T17:34:30.408Z,16.67
2023-04-16T17:37:33.135Z,16.38
2023-04-16T17:40:35.973Z,16.40
2023-04-16T17:43:39.334Z,16.21
2023-04-16T17:46:42.016Z,16.14
2023-04-16T17:49:44.664Z,15.99
2023-04-16T17:52:47.652Z,15.67
2023-04-16T17:55:56.118Z,15.81
2023-04-16T17:58:59.936Z,15.54
2023-04-16T18:02:02.558Z,15.74
2023-04-16T18:05:07.311Z,15.68
2023-04-16T18:08:10.062Z,15.67
2023-04-16T18:11:13.153Z,15.71
2023-04-16T18:14:19.898Z,15.66
2023-04-16T18:17:23.522Z,15.64
2023-04-16T18:20:27.228Z,15.54
2023-04-16T18:23:29.829Z,15.55
2023-04-16T18:26:35.660Z,15.58
2023-04-16T18:29:40.195Z,15.66
2023-04-16T18:32:59.854Z,15.47
2023-04-16T18:36:06.469Z,15.06
2023-04-16T18:39:09.502Z,15.17
2023-04-16T18:42:12.604Z,15.14
2023-04-16T18:45:21.115Z,15.19
2023-04-16T18:48:25.491Z,15.20
2023-04-16T18:51:29.018Z,15.25
2023-04-16T18:54:32.403Z,15.22
2023-04-16T18:57:35.904Z,15.14
2023-04-16T19:00:39.400Z,15.11
2023-04-16T19:03:42.470Z,15.08
2023-04-16T19:06:46.027Z,15.11
2023-04-16T19:09:48.648Z,15.07
2023-04-16T19:12:51.273Z,14.92
2023-04-16T19:16:01.620Z,14.93
2023-04-16T19:19:04.629Z,14.97
2023-04-16T19:22:07.993Z,14.97
2023-04-16T19:25:11.103Z,15.00
2023-04-16T19:28:13.755Z,14.95
2023-04-16T19:31:16.443Z,14.92
2023-04-16T19:34:19.030Z,14.84
2023-04-16T19:37:21.639Z,14.90
2023-04-16T19:40:25.012Z,14.93
2023-04-16T19:43:30.634Z,14.87
2023-04-16T19:46:34.514Z,14.93
2023-04-16T19:49:37.376Z,15.02
2023-04-16T19:52:40.254Z,14.83
2023-04-16T19:55:43.164Z,14.71
2023-04-16T19:58:46.628Z,14.78
2023-04-16T20:01:49.454Z,14.69
2023-04-16T20:04:53.154Z,14.75
2023-04-16T20:07:57.094Z,14.80
2023-04-16T20:10:59.616Z,14.81
2023-04-16T20:14:02.298Z,14.66
2023-04-16T20:17:09.838Z,14.75
2023-04-16T20:20:15.712Z,14.67
2023-04-16T20:23:18.470Z,14.62
2023-04-16T20:26:24.016Z,14.63
2023-04-16T20:29:27.492Z,14.62
2023-04-16T20:32:31.117Z,14.71
2023-04-16T20:35:34.733Z,14.58
2023-04-16T20:38:38.932Z,14.64
2023-04-16T20:41:44.235Z,14.61
2023-04-16T20:44:50.386Z,14.50
2023-04-16T20:47:53.106Z,14.50
2023-04-16T20:51:03.809Z,14.49
2023-04-16T20:54:08.684Z,14.34
2023-04-16T20:57:11.657Z,14.40
2023-04-16T21:00:15.516Z,14.30
2023-04-16T21:03:18.865Z,14.33
2023-04-16T21:06:22.629Z,14.34
2023-04-16T21:09:25.453Z,14.31
2023-04-16T21:12:28.146Z,14.29
2023-04-16T21:15:31.678Z,14.15
2023-04-16T21:18:36.901Z,14.21
2023-04-16T21:21:39.680Z,14.20
2023-04-16T21:24:43.067Z,14.13
2023-04-16T21:27:45.816Z,14.09
2023-04-16T21:30:52.457Z,14.12
2023-04-16T21:33:55.145Z,14.24
2023-04-16T21:36:57.779Z,14.14
2023-04-16T21:40:00.639Z,14.13
2023-04-16T21:43:04.056Z,14.02
2023-04-16T21:46:06.687Z,14.00
2023-04-16T21:49:10.299Z,13.91
2023-04-16T21:52:22.310Z,13.88
2023-04-16T21:55:25.030Z,13.70
2023-04-16T21:58:28.217Z,13.69
2023-04-16T22:01:31.266Z,13.63
2023-04-16T22:04:40.131Z,13.78
2023-04-16T22:07:42.730Z,13.48
2023-04-16T22:10:45.436Z,13.65
2023-04-16T22:13:48.038Z,13.78
2023-04-16T22:16:53.573Z,13.67
2023-04-16T22:19:57.386Z,13.79
2023-04-16T22:23:00.787Z,13.80
2023-04-16T22:26:04.188Z,13.77
2023-04-16T22:29:06.780Z,13.73
2023-04-16T22:32:09.906Z,13.72
2023-04-16T22:35:12.731Z,13.85
2023-04-16T22:38:16.512Z,13.78
2023-04-16T22:41:20.211Z,13.73
2023-04-16T22:44:23.708Z,13.77
2023-04-16T22:47:26.314Z,13.79
2023-04-16T22:50:31.358Z,13.60
2023-04-16T22:53:36.048Z,13.61
2023-04-16T22:56:39.005Z,13.50
2023-04-16T22:59:41.944Z,13.44
2023-04-16T23:02:45.406Z,13.45
2023-04-16T23:05:49.200Z,13.47
2023-04-16T23:08:51.775Z,13.48
2023-04-16T23:11:54.435Z,13.37
2023-04-16T23:14:58.356Z,13.37
2023-04-16T23:18:01.128Z,13.44
2023-04-16T23:21:03.812Z,13.35
2023-04-16T23:24:07.552Z,13.38
2023-04-16T23:27:10.686Z,13.39
2023-04-16T23:30:13.671Z,13.37
2023-04-16T23:33:17.817Z,13.41
2023-04-16T23:36:20.806Z,13.42
2023-04-16T23:39:24.259Z,13.35
2023-04-16T23:42:26.909Z,13.31
2023-04-16T23:45:29.505Z,13.37
2023-04-16T23:48:32.561Z,13.27
2023-04-16T23:51:35.397Z,13.37
2023-04-16T23:54:38.406Z,13.37
2023-04-16T23:57:40.953Z,13.29
